createdAt,value
2019-03-30T00:00:30.553Z,88.34
2019-03-30T00:02:30.695Z,88.21
2019-03-30T00:04:30.689Z,88.26
2019-03-30T00:06:30.773Z,88.37
2019-03-30T00:08:30.684Z,88.31
2019-03-30T00:10:30.668Z,88.18
2019-03-30T00:12:30.637Z,88.29
2019-03-30T00:14:30.898Z,88.38
2019-03-30T00:16:30.602Z,87.75
2019-03-30T00:18:30.521Z,88.01
2019-03-30T00:20:30.625Z,87.93
2019-03-30T00:22:30.637Z,88.42
2019-03-30T00:24:30.760Z,88.40
2019-03-30T00:26:30.663Z,88.24
2019-03-30T00:28:30.777Z,88.51
2019-03-30T00:30:30.786Z,88.19
2019-03-30T00:32:30.803Z,88.26
2019-03-30T00:34:30.709Z,88.40
2019-03-30T00:36:30.717Z,88.96
2019-03-30T00:38:30.734Z,88.77
2019-03-30T00:40:30.552Z,88.46
2019-03-30T00:42:30.855Z,88.87
2019-03-30T00:44:30.591Z,89.15
2019-03-30T00:46:30.777Z,89.16
2019-03-30T00:48:31.098Z,89.47
2019-03-30T00:50:30.917Z,89.75
2019-03-30T00:52:31.016Z,89.70
2019-03-30T00:54:30.830Z,89.81
2019-03-30T00:56:30.774Z,90.05
2019-03-30T00:58:30.764Z,89.86
2019-03-30T01:00:30.658Z,89.78
2019-03-30T01:02:30.746Z,89.67
2019-03-30T01:04:30.681Z,89.81
2019-03-30T01:06:30.560Z,89.89
2019-03-30T01:08:30.740Z,89.94
2019-03-30T01:10:31.020Z,90.04
2019-03-30T01:12:30.878Z,90.06
2019-03-30T01:14:30.656Z,89.84
2019-03-30T01:16:30.731Z,90.17
2019-03-30T01:18:30.682Z,90.01
2019-03-30T01:20:30.775Z,90.03
2019-03-30T01:22:31.082Z,90.03
2019-03-30T01:24:30.715Z,90.09
2019-03-30T01:26:30.725Z,89.95
2019-03-30T01:28:30.780Z,90.10
2019-03-30T01:30:30.802Z,90.28
2019-03-30T01:32:30.642Z,90.25
2019-03-30T01:34:30.758Z,90.01
2019-03-30T01:36:30.561Z,90.26
2019-03-30T01:38:30.728Z,90.46
2019-03-30T01:40:30.681Z,90.57
2019-03-30T01:42:30.691Z,90.47
2019-03-30T01:44:30.750Z,90.77
2019-03-30T01:46:30.825Z,90.84
2019-03-30T01:48:30.832Z,90.78
2019-03-30T01:50:30.674Z,90.72
2019-03-30T01:52:30.715Z,91.08
2019-03-30T01:54:30.660Z,91.40
2019-03-30T01:56:30.721Z,91.11
2019-03-30T01:58:30.790Z,91.11
2019-03-30T02:00:30.778Z,91.47
2019-03-30T02:02:30.527Z,91.51
2019-03-30T02:04:30.629Z,91.32
2019-03-30T02:06:30.465Z,91.46
2019-03-30T02:08:30.749Z,91.75
2019-03-30T02:10:30.758Z,91.49
2019-03-30T02:12:30.687Z,91.75
2019-03-30T02:14:30.728Z,91.75
2019-03-30T02:16:30.797Z,91.80
2019-03-30T02:18:30.801Z,91.67
2019-03-30T02:20:31.248Z,91.94
2019-03-30T02:22:30.825Z,91.98
2019-03-30T02:24:30.817Z,92.43
2019-03-30T02:26:30.649Z,92.34
2019-03-30T02:28:30.874Z,92.77
2019-03-30T02:30:30.639Z,92.38
2019-03-30T02:32:30.808Z,92.42
2019-03-30T02:34:30.799Z,92.48
2019-03-30T02:36:30.809Z,92.28
2019-03-30T02:38:30.767Z,92.47
2019-03-30T02:40:30.657Z,92.43
2019-03-30T02:42:31.049Z,92.45
2019-03-30T02:44:30.553Z,92.45
2019-03-30T02:46:30.673Z,92.67
2019-03-30T02:48:30.780Z,92.54
2019-03-30T02:50:47.873Z,92.88
2019-03-30T02:52:30.836Z,92.73
2019-03-30T02:54:31.082Z,92.95
2019-03-30T02:56:31.003Z,92.82
2019-03-30T02:58:30.943Z,93.00
2019-03-30T03:00:31.158Z,92.71
2019-03-30T03:02:30.763Z,93.10
2019-03-30T03:04:30.563Z,92.99
2019-03-30T03:06:30.877Z,93.23
2019-03-30T03:08:30.829Z,93.36
2019-03-30T03:10:30.855Z,93.36
2019-03-30T03:12:30.919Z,93.25
2019-03-30T03:14:31.032Z,93.47
2019-03-30T03:16:30.773Z,93.28
2019-03-30T03:18:30.850Z,93.44
2019-03-30T03:20:31.045Z,93.32
2019-03-30T03:22:30.653Z,93.63
2019-03-30T03:24:30.918Z,93.33
2019-03-30T03:26:31.002Z,93.80
2019-03-30T03:28:30.804Z,93.68
2019-03-30T03:30:30.926Z,93.69
2019-03-30T03:32:30.769Z,93.63
2019-03-30T03:34:30.821Z,93.89
2019-03-30T03:36:30.872Z,93.60
2019-03-30T03:38:30.802Z,93.86
2019-03-30T03:40:30.780Z,93.93
2019-03-30T03:42:30.860Z,93.75
2019-03-30T03:44:31.103Z,93.86
2019-03-30T03:46:30.813Z,93.72
2019-03-30T03:48:30.749Z,93.90
2019-03-30T03:50:30.982Z,93.80
2019-03-30T03:52:30.947Z,93.82
2019-03-30T03:54:30.896Z,94.05
2019-03-30T03:56:30.937Z,94.16
2019-03-30T03:58:31.089Z,94.36
2019-03-30T04:00:31.152Z,94.55
2019-03-30T04:02:30.843Z,94.07
2019-03-30T04:04:30.918Z,94.09
2019-03-30T04:06:31.261Z,94.31
2019-03-30T04:08:31.079Z,94.39
2019-03-30T04:10:30.952Z,94.25
2019-03-30T04:12:30.766Z,94.43
2019-03-30T04:14:30.963Z,94.63
2019-03-30T04:16:30.993Z,94.22
2019-03-30T04:18:31.098Z,94.56
2019-03-30T04:20:31.416Z,94.61
2019-03-30T04:22:31.228Z,94.38
2019-03-30T04:24:31.034Z,94.37
2019-03-30T04:26:30.993Z,94.62
2019-03-30T04:28:30.640Z,94.58
2019-03-30T04:30:31.069Z,94.65
2019-03-30T04:32:30.875Z,94.37
2019-03-30T04:34:30.888Z,94.60
2019-03-30T04:36:30.903Z,94.73
2019-03-30T04:38:30.908Z,94.69
2019-03-30T04:40:30.922Z,94.58
2019-03-30T04:42:31.036Z,94.76
2019-03-30T04:44:30.939Z,94.75
2019-03-30T04:46:30.962Z,94.80
2019-03-30T04:48:30.961Z,94.77
2019-03-30T04:50:30.979Z,95.05
2019-03-30T04:52:31.016Z,95.18
2019-03-30T04:54:30.907Z,94.93
2019-03-30T04:56:30.907Z,94.51
2019-03-30T04:58:30.921Z,95.33
2019-03-30T05:00:30.851Z,94.77
2019-03-30T05:02:30.877Z,95.07
2019-03-30T05:04:30.895Z,95.54
2019-03-30T05:06:30.866Z,95.16
2019-03-30T05:08:30.870Z,95.22
2019-03-30T05:10:31.095Z,95.56
2019-03-30T05:12:30.783Z,95.75
2019-03-30T05:14:31.018Z,95.23
2019-03-30T05:16:30.931Z,95.38
2019-03-30T05:18:31.037Z,95.58
2019-03-30T05:20:31.052Z,95.75
2019-03-30T05:22:30.959Z,95.73
2019-03-30T05:24:31.491Z,95.82
2019-03-30T05:26:30.905Z,95.43
2019-03-30T05:28:30.989Z,95.89
2019-03-30T05:30:31.022Z,96.03
2019-03-30T05:32:31.020Z,95.61
2019-03-30T05:34:31.438Z,95.94
2019-03-30T05:36:30.955Z,95.72
2019-03-30T05:38:30.969Z,96.07
2019-03-30T05:40:30.958Z,96.02
2019-03-30T05:42:31.196Z,96.10
2019-03-30T05:44:30.892Z,95.76
2019-03-30T05:46:31.037Z,96.37
2019-03-30T05:48:31.009Z,95.98
2019-03-30T05:50:30.683Z,96.05
2019-03-30T05:52:30.934Z,95.97
2019-03-30T05:54:30.955Z,96.25
2019-03-30T05:56:31.365Z,96.14
2019-03-30T05:58:31.334Z,96.31
2019-03-30T06:00:30.875Z,96.00
2019-03-30T06:02:30.952Z,96.44
2019-03-30T06:04:31.105Z,96.35
2019-03-30T06:06:30.995Z,96.46
2019-03-30T06:08:31.126Z,96.08
2019-03-30T06:10:30.745Z,96.31
2019-03-30T06:12:30.950Z,96.10
2019-03-30T06:14:31.266Z,95.97
2019-03-30T06:16:31.065Z,96.40
2019-03-30T06:18:30.990Z,95.86
2019-03-30T06:20:30.988Z,96.29
2019-03-30T06:22:40.267Z,96.06
2019-03-30T06:24:31.127Z,96.20
2019-03-30T06:26:31.740Z,96.42
2019-03-30T06:28:30.956Z,96.47
2019-03-30T06:30:33.902Z,95.68
2019-03-30T06:32:31.166Z,94.69
2019-03-30T06:34:31.174Z,93.48
2019-03-30T06:36:31.074Z,92.10
2019-03-30T06:38:31.300Z,90.43
2019-03-30T06:40:31.101Z,89.62
2019-03-30T06:42:31.130Z,88.49
2019-03-30T06:44:31.115Z,87.36
2019-03-30T06:46:31.046Z,86.58
2019-03-30T06:48:30.932Z,85.75
2019-03-30T06:50:31.123Z,84.04
2019-03-30T06:52:31.086Z,81.97
2019-03-30T06:54:31.097Z,80.30
2019-03-30T06:56:31.202Z,78.86
2019-03-30T06:58:33.803Z,77.20
2019-03-30T07:00:30.926Z,76.36
2019-03-30T07:02:31.005Z,74.08
2019-03-30T07:04:30.943Z,73.69
2019-03-30T07:06:31.056Z,72.53
2019-03-30T07:08:30.963Z,71.32
2019-03-30T07:10:30.883Z,71.73
2019-03-30T07:12:30.917Z,69.93
2019-03-30T07:14:33.856Z,66.63
2019-03-30T07:16:31.015Z,66.37
2019-03-30T07:18:30.919Z,66.12
2019-03-30T07:20:30.835Z,66.22
2019-03-30T07:22:34.044Z,64.40
2019-03-30T07:24:30.977Z,65.13
2019-03-30T07:26:30.915Z,64.64
2019-03-30T07:28:30.780Z,65.44
2019-03-30T07:30:30.992Z,65.69
2019-03-30T07:32:31.056Z,64.77
2019-03-30T07:34:31.061Z,64.40
2019-03-30T07:36:33.631Z,64.56
2019-03-30T07:38:31.037Z,63.88
2019-03-30T07:40:33.807Z,64.81
2019-03-30T07:42:31.172Z,63.30
2019-03-30T07:44:31.136Z,63.30
2019-03-30T07:46:31.197Z,63.15
2019-03-30T07:48:31.099Z,63.10
2019-03-30T07:50:31.106Z,64.15
2019-03-30T07:52:34.076Z,63.70
2019-03-30T07:54:30.971Z,61.63
2019-03-30T07:56:30.817Z,61.18
2019-03-30T07:58:30.948Z,62.76
2019-03-30T08:00:31.129Z,62.88
2019-03-30T08:02:31.075Z,62.91
2019-03-30T08:04:31.083Z,62.11
2019-03-30T08:06:31.087Z,62.06
2019-03-30T08:08:31.112Z,62.37
2019-03-30T08:10:34.074Z,60.26
2019-03-30T08:12:31.242Z,59.97
2019-03-30T08:14:31.249Z,59.02
2019-03-30T08:16:31.165Z,59.92
2019-03-30T08:18:31.272Z,60.37
2019-03-30T08:20:31.278Z,60.23
2019-03-30T08:22:31.291Z,60.49
2019-03-30T08:24:31.261Z,60.33
2019-03-30T08:26:31.179Z,60.45
2019-03-30T08:28:31.046Z,60.63
2019-03-30T08:30:31.548Z,60.35
2019-03-30T08:32:31.255Z,59.87
2019-03-30T08:34:31.265Z,60.92
2019-03-30T08:36:31.473Z,59.93
2019-03-30T08:38:31.077Z,61.25
2019-03-30T08:40:31.231Z,60.78
2019-03-30T08:42:31.415Z,61.24
2019-03-30T08:44:31.214Z,60.52
2019-03-30T08:46:31.226Z,60.80
2019-03-30T08:48:31.246Z,61.66
2019-03-30T08:50:31.123Z,61.85
2019-03-30T08:52:31.365Z,60.90
2019-03-30T08:54:31.231Z,60.27
2019-03-30T08:56:31.288Z,58.62
2019-03-30T08:58:31.254Z,58.99
2019-03-30T09:00:31.313Z,58.73
2019-03-30T09:02:31.526Z,58.21
2019-03-30T09:04:31.109Z,58.96
2019-03-30T09:06:31.246Z,58.53
2019-03-30T09:08:31.256Z,58.14
2019-03-30T09:10:31.471Z,57.84
2019-03-30T09:12:31.688Z,56.63
2019-03-30T09:14:31.289Z,55.55
2019-03-30T09:16:31.604Z,54.93
2019-03-30T09:18:31.628Z,55.29
2019-03-30T09:20:31.253Z,54.30
2019-03-30T09:22:31.333Z,54.70
2019-03-30T09:24:31.027Z,54.98
2019-03-30T09:26:31.260Z,54.57
2019-03-30T09:28:31.362Z,54.15
2019-03-30T09:30:31.495Z,54.01
2019-03-30T09:32:31.294Z,55.04
2019-03-30T09:34:31.218Z,55.02
2019-03-30T09:36:31.361Z,53.62
2019-03-30T09:38:31.327Z,53.64
2019-03-30T09:40:31.336Z,53.90
2019-03-30T09:42:31.349Z,54.25
2019-03-30T09:44:31.372Z,52.76
2019-03-30T09:46:31.522Z,53.59
2019-03-30T09:48:31.391Z,53.02
2019-03-30T09:50:31.396Z,52.76
2019-03-30T09:52:31.423Z,52.44
2019-03-30T09:54:31.172Z,51.69
2019-03-30T09:56:31.226Z,52.02
2019-03-30T09:58:31.375Z,53.37
2019-03-30T10:00:31.874Z,51.97
2019-03-30T10:02:31.466Z,52.43
2019-03-30T10:04:31.422Z,52.01
2019-03-30T10:06:34.696Z,52.17
2019-03-30T10:08:31.414Z,53.21
2019-03-30T10:10:31.524Z,52.43
2019-03-30T10:12:31.627Z,52.26
2019-03-30T10:14:31.550Z,51.92
2019-03-30T10:16:31.757Z,51.28
2019-03-30T10:18:31.297Z,51.29
2019-03-30T10:20:31.474Z,51.12
2019-03-30T10:22:31.388Z,51.48
2019-03-30T10:24:38.049Z,51.91
2019-03-30T10:26:31.612Z,50.15
2019-03-30T10:28:31.207Z,50.43
2019-03-30T10:30:31.630Z,50.56
2019-03-30T10:32:31.552Z,50.08
2019-03-30T10:34:31.554Z,50.65
2019-03-30T10:36:31.566Z,49.86
2019-03-30T10:38:31.577Z,50.70
2019-03-30T10:40:31.512Z,49.34
2019-03-30T10:42:31.391Z,49.18
2019-03-30T10:44:31.408Z,50.21
2019-03-30T10:46:31.418Z,47.84
2019-03-30T10:48:31.505Z,48.25
2019-03-30T10:50:31.374Z,47.86
2019-03-30T10:52:31.422Z,48.40
2019-03-30T10:54:31.240Z,48.62
2019-03-30T10:56:31.339Z,49.25
2019-03-30T10:58:31.392Z,49.53
2019-03-30T11:00:31.350Z,48.91
2019-03-30T11:02:31.618Z,49.49
2019-03-30T11:04:31.630Z,50.49
2019-03-30T11:06:31.398Z,50.26
2019-03-30T11:08:31.304Z,48.95
2019-03-30T11:10:31.765Z,47.65
2019-03-30T11:12:31.477Z,48.53
2019-03-30T11:14:31.589Z,48.93
2019-03-30T11:16:31.393Z,49.16
2019-03-30T11:18:31.564Z,47.84
2019-03-30T11:20:31.520Z,47.17
2019-03-30T11:22:31.332Z,47.74
2019-03-30T11:24:31.542Z,47.82
2019-03-30T11:26:31.453Z,48.47
2019-03-30T11:28:31.417Z,46.74
2019-03-30T11:30:31.590Z,46.44
2019-03-30T11:32:31.490Z,46.22
2019-03-30T11:34:31.459Z,45.75
2019-03-30T11:36:31.525Z,45.86
2019-03-30T11:38:31.454Z,46.02
2019-03-30T11:40:31.489Z,44.83
2019-03-30T11:42:31.687Z,44.58
2019-03-30T11:44:31.356Z,44.61
2019-03-30T11:46:31.579Z,45.20
2019-03-30T11:48:31.908Z,44.65
2019-03-30T11:50:31.590Z,44.60
2019-03-30T11:52:31.566Z,42.86
2019-03-30T11:54:31.623Z,44.27
2019-03-30T11:56:31.551Z,44.59
2019-03-30T11:58:31.639Z,44.44
2019-03-30T12:00:31.654Z,43.65
2019-03-30T12:02:31.427Z,44.47
2019-03-30T12:04:31.473Z,45.32
2019-03-30T12:06:31.690Z,44.47
2019-03-30T12:08:31.471Z,44.41
2019-03-30T12:10:31.598Z,44.44
2019-03-30T12:12:31.756Z,45.36
2019-03-30T12:14:31.448Z,45.01
2019-03-30T12:16:31.571Z,44.26
2019-03-30T12:18:31.712Z,43.61
2019-03-30T12:20:31.312Z,43.85
2019-03-30T12:22:31.285Z,44.89
2019-03-30T12:24:31.359Z,45.32
2019-03-30T12:26:31.373Z,45.63
2019-03-30T12:28:31.585Z,44.23
2019-03-30T12:30:31.626Z,43.07
2019-03-30T12:32:31.434Z,43.81
2019-03-30T12:34:31.450Z,42.04
2019-03-30T12:36:31.831Z,42.96
2019-03-30T12:38:31.721Z,43.10
2019-03-30T12:40:31.788Z,44.47
2019-03-30T12:42:32.002Z,43.68
2019-03-30T12:44:31.644Z,44.37
2019-03-30T12:46:31.617Z,43.87
2019-03-30T12:48:31.780Z,43.23
2019-03-30T12:50:31.849Z,42.13
2019-03-30T12:52:31.992Z,42.81
2019-03-30T12:54:31.670Z,42.82
2019-03-30T12:56:31.683Z,41.90
2019-03-30T12:58:31.795Z,41.82
2019-03-30T13:01:52.016Z,42.00
2019-03-30T13:03:52.028Z,41.30
2019-03-30T13:05:52.110Z,43.41
2019-03-30T13:07:51.883Z,42.74
2019-03-30T13:09:51.932Z,40.74
2019-03-30T13:11:51.942Z,41.09
2019-03-30T13:13:51.960Z,40.36
2019-03-30T13:15:51.958Z,40.57
2019-03-30T13:17:51.984Z,41.27
2019-03-30T13:19:52.087Z,43.06
2019-03-30T13:21:53.144Z,41.34
2019-03-30T13:23:52.423Z,40.62
2019-03-30T13:26:02.843Z,38.09
2019-03-30T13:27:53.374Z,39.14
2019-03-30T13:29:52.262Z,38.70
2019-03-30T13:31:52.157Z,38.37
2019-03-30T13:33:52.182Z,39.51
2019-03-30T13:35:52.392Z,40.14
2019-03-30T13:37:52.406Z,38.84
2019-03-30T13:39:52.209Z,39.41
2019-03-30T13:41:51.973Z,38.19
2019-03-30T13:43:52.237Z,37.79
2019-03-30T13:45:52.041Z,37.89
2019-03-30T13:47:52.002Z,38.41
2019-03-30T13:49:52.283Z,37.97
2019-03-30T13:51:52.060Z,37.09
2019-03-30T13:53:51.896Z,37.88
2019-03-30T13:55:52.119Z,38.20
2019-03-30T13:57:51.877Z,38.52
2019-03-30T13:59:51.874Z,37.83
2019-03-30T14:01:52.163Z,37.74
2019-03-30T14:03:52.152Z,38.29
2019-03-30T14:05:51.985Z,37.82
2019-03-30T14:07:52.162Z,38.14
2019-03-30T14:09:52.080Z,39.14
2019-03-30T14:11:52.000Z,38.28
2019-03-30T14:13:51.958Z,38.87
2019-03-30T14:15:51.921Z,38.92
2019-03-30T14:17:51.974Z,39.35
2019-03-30T14:19:52.162Z,38.53
2019-03-30T14:21:52.253Z,39.51
2019-03-30T14:23:51.837Z,39.67
2019-03-30T14:25:52.277Z,40.83
2019-03-30T14:27:52.301Z,39.27
2019-03-30T14:29:54.435Z,39.90
2019-03-30T14:31:52.417Z,40.35
2019-03-30T14:33:51.918Z,37.86
2019-03-30T14:35:52.216Z,39.03
2019-03-30T14:37:52.563Z,39.74
2019-03-30T14:39:51.963Z,38.11
2019-03-30T14:41:51.946Z,38.86
2019-03-30T14:43:52.258Z,38.11
2019-03-30T14:45:52.202Z,38.79
2019-03-30T14:47:52.008Z,38.17
2019-03-30T14:49:52.216Z,38.49
2019-03-30T14:51:52.226Z,39.31
2019-03-30T14:53:52.656Z,38.63
2019-03-30T14:55:52.361Z,38.63
2019-03-30T14:57:52.009Z,38.68
2019-03-30T14:59:52.277Z,37.61
2019-03-30T15:01:52.292Z,37.23
2019-03-30T15:03:52.176Z,36.58
2019-03-30T15:05:52.106Z,37.15
2019-03-30T15:07:52.224Z,37.19
2019-03-30T15:09:52.135Z,36.92
2019-03-30T15:11:52.080Z,36.92
2019-03-30T15:13:52.154Z,36.58
2019-03-30T15:15:52.074Z,36.67
2019-03-30T15:17:52.389Z,37.57
2019-03-30T15:19:52.165Z,36.26
2019-03-30T15:21:52.516Z,37.50
2019-03-30T15:23:52.220Z,36.55
2019-03-30T15:25:52.330Z,37.06
2019-03-30T15:27:52.034Z,36.88
2019-03-30T15:29:52.160Z,36.63
2019-03-30T15:31:52.267Z,36.63
2019-03-30T15:33:53.461Z,36.62
2019-03-30T15:35:52.490Z,36.85
2019-03-30T15:37:52.270Z,37.15
2019-03-30T15:39:53.682Z,38.10
2019-03-30T15:41:52.094Z,37.42
2019-03-30T15:43:52.351Z,37.39
2019-03-30T15:45:52.484Z,36.86
2019-03-30T15:47:52.165Z,36.80
2019-03-30T15:49:52.583Z,35.58
2019-03-30T15:51:52.385Z,36.82
2019-03-30T15:53:52.140Z,36.23
2019-03-30T15:55:52.160Z,37.19
2019-03-30T15:57:52.218Z,36.94
2019-03-30T15:59:52.029Z,37.11
2019-03-30T16:01:52.137Z,36.90
2019-03-30T16:03:52.255Z,37.30
2019-03-30T16:05:52.242Z,37.36
2019-03-30T16:07:52.379Z,36.88
2019-03-30T16:09:52.802Z,36.43
2019-03-30T16:11:52.754Z,36.47
2019-03-30T16:13:52.143Z,36.92
2019-03-30T16:15:51.986Z,37.66
2019-03-30T16:17:52.173Z,36.75
2019-03-30T16:19:52.178Z,36.39
2019-03-30T16:21:52.117Z,36.66
2019-03-30T16:23:52.374Z,37.01
2019-03-30T16:25:52.278Z,36.66
2019-03-30T16:27:52.188Z,37.24
2019-03-30T16:29:52.201Z,37.29
2019-03-30T16:31:52.422Z,37.56
2019-03-30T16:33:52.427Z,37.60
2019-03-30T16:35:52.034Z,37.28
2019-03-30T16:37:52.462Z,36.52
2019-03-30T16:39:52.211Z,37.28
2019-03-30T16:41:52.278Z,37.60
2019-03-30T16:43:52.086Z,37.96
2019-03-30T16:45:52.410Z,37.43
2019-03-30T16:47:52.174Z,37.20
2019-03-30T16:49:52.383Z,38.04
2019-03-30T16:51:52.290Z,38.54
2019-03-30T16:53:52.346Z,39.09
2019-03-30T16:55:52.023Z,38.18
2019-03-30T16:57:52.264Z,39.10
2019-03-30T16:59:52.181Z,39.50
2019-03-30T17:01:52.493Z,40.42
2019-03-30T17:03:52.209Z,39.85
2019-03-30T17:05:52.320Z,40.19
2019-03-30T17:07:52.328Z,40.53
2019-03-30T17:09:52.239Z,40.76
2019-03-30T17:11:52.324Z,40.61
2019-03-30T17:13:52.430Z,41.28
2019-03-30T17:15:52.207Z,41.36
2019-03-30T17:17:52.488Z,42.00
2019-03-30T17:19:52.075Z,41.25
2019-03-30T17:21:52.310Z,41.98
2019-03-30T17:23:52.118Z,42.08
2019-03-30T17:25:52.083Z,42.10
2019-03-30T17:27:58.650Z,42.30
2019-03-30T17:29:52.153Z,42.75
2019-03-30T17:31:52.139Z,43.01
2019-03-30T17:33:52.429Z,43.35
2019-03-30T17:35:52.215Z,44.02
2019-03-30T17:37:52.322Z,44.27
2019-03-30T17:39:52.411Z,44.19
2019-03-30T17:41:52.328Z,44.41
2019-03-30T17:43:52.601Z,43.93
2019-03-30T17:45:52.528Z,44.42
2019-03-30T17:47:52.470Z,44.87
2019-03-30T17:49:52.386Z,44.79
2019-03-30T17:51:54.014Z,44.94
2019-03-30T17:53:52.311Z,45.43
2019-03-30T17:55:52.208Z,46.03
2019-03-30T17:57:52.375Z,46.38
2019-03-30T17:59:52.438Z,45.84
2019-03-30T18:01:52.653Z,46.63
2019-03-30T18:03:52.256Z,46.45
2019-03-30T18:05:52.265Z,46.83
2019-03-30T18:07:52.688Z,47.51
2019-03-30T18:09:52.085Z,47.00
2019-03-30T18:11:52.214Z,47.15
2019-03-30T18:13:52.724Z,47.19
2019-03-30T18:15:52.644Z,47.67
2019-03-30T18:17:52.378Z,48.26
2019-03-30T18:19:52.142Z,48.90
2019-03-30T18:21:52.355Z,48.72
2019-03-30T18:23:52.297Z,48.63
2019-03-30T18:25:52.207Z,48.69
2019-03-30T18:27:52.394Z,49.01
2019-03-30T18:29:52.198Z,49.30
2019-03-30T18:31:52.185Z,49.48
2019-03-30T18:33:52.223Z,49.95
2019-03-30T18:35:52.344Z,50.38
2019-03-30T18:37:52.561Z,50.47
2019-03-30T18:39:52.157Z,50.40
2019-03-30T18:41:52.180Z,50.48
2019-03-30T18:43:52.388Z,51.56
2019-03-30T18:45:52.409Z,51.41
2019-03-30T18:47:52.281Z,52.29
2019-03-30T18:49:52.565Z,52.33
2019-03-30T18:51:52.356Z,52.54
2019-03-30T18:53:52.254Z,52.64
2019-03-30T18:55:52.871Z,52.87
2019-03-30T18:57:52.351Z,53.53
2019-03-30T18:59:52.486Z,53.97
2019-03-30T19:01:52.701Z,53.55
2019-03-30T19:03:52.508Z,53.51
2019-03-30T19:05:52.532Z,53.96
2019-03-30T19:07:52.333Z,54.58
2019-03-30T19:09:52.344Z,54.69
2019-03-30T19:11:52.758Z,54.77
2019-03-30T19:13:52.371Z,54.82
2019-03-30T19:15:52.583Z,55.29
2019-03-30T19:17:52.383Z,55.46
2019-03-30T19:19:52.813Z,55.32
2019-03-30T19:21:52.365Z,55.93
2019-03-30T19:23:52.173Z,55.51
2019-03-30T19:25:52.430Z,55.28
2019-03-30T19:27:52.653Z,54.77
2019-03-30T19:29:52.459Z,54.61
2019-03-30T19:31:52.364Z,54.47
2019-03-30T19:33:52.158Z,53.90
2019-03-30T19:35:52.388Z,53.42
2019-03-30T19:37:52.319Z,52.92
2019-03-30T19:39:52.517Z,52.19
2019-03-30T19:41:52.327Z,51.18
2019-03-30T19:43:52.476Z,50.80
2019-03-30T19:45:52.556Z,50.31
2019-03-30T19:47:52.383Z,50.26
2019-03-30T19:49:52.578Z,49.87
2019-03-30T19:51:52.305Z,50.25
2019-03-30T19:53:52.320Z,49.92
2019-03-30T19:55:52.326Z,49.41
2019-03-30T19:57:52.423Z,49.90
2019-03-30T19:59:52.745Z,49.31
2019-03-30T20:01:52.653Z,49.25
2019-03-30T20:03:52.230Z,49.23
2019-03-30T20:05:52.204Z,49.34
2019-03-30T20:07:52.481Z,49.98
2019-03-30T20:09:56.029Z,50.10
2019-03-30T20:11:52.296Z,49.80
2019-03-30T20:13:52.642Z,49.86
2019-03-30T20:15:52.528Z,49.85
2019-03-30T20:17:52.747Z,49.53
2019-03-30T20:19:52.550Z,49.75
2019-03-30T20:21:52.359Z,49.91
2019-03-30T20:23:52.366Z,50.30
2019-03-30T20:25:52.348Z,50.12
2019-03-30T20:27:52.501Z,50.26
2019-03-30T20:29:52.434Z,50.62
2019-03-30T20:31:52.518Z,50.95
2019-03-30T20:33:52.485Z,50.94
2019-03-30T20:35:52.439Z,51.17
2019-03-30T20:37:52.372Z,51.13
2019-03-30T20:39:52.215Z,51.58
2019-03-30T20:41:52.282Z,52.05
2019-03-30T20:43:52.588Z,51.82
2019-03-30T20:45:52.335Z,52.42
2019-03-30T20:47:52.412Z,52.65
2019-03-30T20:49:52.423Z,53.12
2019-03-30T20:51:52.433Z,53.62
2019-03-30T20:53:52.347Z,53.36
2019-03-30T20:55:52.566Z,53.41
2019-03-30T20:57:52.472Z,53.16
2019-03-30T20:59:52.516Z,52.69
2019-03-30T21:01:52.491Z,52.83
2019-03-30T21:03:52.509Z,52.75
2019-03-30T21:05:52.310Z,52.54
2019-03-30T21:07:52.532Z,52.71
2019-03-30T21:09:52.313Z,52.50
2019-03-30T21:11:52.451Z,52.49
2019-03-30T21:13:52.560Z,52.40
2019-03-30T21:15:52.382Z,52.13
2019-03-30T21:17:52.382Z,52.47
2019-03-30T21:19:52.448Z,52.22
2019-03-30T21:21:52.508Z,52.50
2019-03-30T21:23:52.524Z,52.13
2019-03-30T21:25:52.302Z,52.48
2019-03-30T21:27:52.371Z,52.18
2019-03-30T21:29:54.965Z,52.28
2019-03-30T21:31:52.683Z,52.27
2019-03-30T21:33:52.269Z,52.44
2019-03-30T21:35:52.285Z,52.56
2019-03-30T21:37:52.506Z,52.23
2019-03-30T21:39:52.314Z,52.13
2019-03-30T21:41:52.531Z,51.85
2019-03-30T21:43:52.726Z,52.17
2019-03-30T21:45:52.325Z,51.93
2019-03-30T21:47:52.323Z,51.72
2019-03-30T21:49:52.510Z,51.73
2019-03-30T21:51:52.281Z,51.52
2019-03-30T21:53:52.594Z,51.71
2019-03-30T21:55:52.438Z,51.57
2019-03-30T21:57:52.381Z,51.59
2019-03-30T21:59:52.394Z,51.58
2019-03-30T22:01:52.488Z,51.28
2019-03-30T22:03:52.462Z,51.42
2019-03-30T22:05:52.231Z,51.69
2019-03-30T22:07:52.274Z,51.77
2019-03-30T22:09:52.300Z,51.81
2019-03-30T22:11:52.501Z,51.86
2019-03-30T22:13:52.614Z,51.65
2019-03-30T22:15:52.630Z,51.84
2019-03-30T22:17:52.534Z,51.57
2019-03-30T22:19:52.506Z,51.74
2019-03-30T22:21:52.569Z,51.60
2019-03-30T22:23:52.614Z,51.43
2019-03-30T22:25:52.272Z,51.38
2019-03-30T22:27:52.293Z,51.55
2019-03-30T22:29:52.405Z,51.31
2019-03-30T22:31:52.534Z,51.75
2019-03-30T22:33:52.837Z,51.84
2019-03-30T22:35:52.846Z,51.99
2019-03-30T22:37:52.549Z,51.76
2019-03-30T22:39:52.312Z,52.56
2019-03-30T22:41:52.375Z,53.32
2019-03-30T22:43:52.590Z,53.87
2019-03-30T22:45:52.393Z,53.73
2019-03-30T22:47:52.366Z,54.85
2019-03-30T22:49:52.513Z,55.27
2019-03-30T22:51:52.442Z,54.47
2019-03-30T22:53:52.561Z,54.94
2019-03-30T22:55:52.599Z,55.23
2019-03-30T22:57:52.673Z,55.44
2019-03-30T22:59:52.684Z,55.91
2019-03-30T23:01:52.239Z,57.08
2019-03-30T23:03:52.501Z,56.77
2019-03-30T23:05:52.517Z,56.55
2019-03-30T23:07:52.473Z,57.03
2019-03-30T23:09:52.330Z,57.26
2019-03-30T23:11:52.290Z,57.46
2019-03-30T23:13:52.495Z,57.30
2019-03-30T23:15:52.368Z,58.10
2019-03-30T23:17:52.585Z,57.84
2019-03-30T23:19:52.595Z,57.65
2019-03-30T23:21:52.305Z,59.43
2019-03-30T23:23:52.442Z,58.58
2019-03-30T23:25:52.498Z,58.32
2019-03-30T23:27:52.552Z,59.35
2019-03-30T23:29:52.464Z,58.77
2019-03-30T23:31:52.764Z,59.21
2019-03-30T23:33:52.571Z,59.44
2019-03-30T23:35:52.484Z,59.02
2019-03-30T23:37:52.473Z,58.76
2019-03-30T23:39:52.511Z,58.73
2019-03-30T23:41:52.403Z,58.71
2019-03-30T23:43:52.633Z,58.75
2019-03-30T23:45:52.444Z,58.43
2019-03-30T23:47:52.395Z,59.08
2019-03-30T23:49:52.335Z,58.94
2019-03-30T23:51:52.528Z,58.81
2019-03-30T23:53:52.391Z,59.33
2019-03-30T23:55:52.819Z,59.23
2019-03-30T23:57:52.611Z,59.86
2019-03-30T23:59:52.651Z,61.11
